Time;durP1;ratioP1;P1;durP2;ratioP2;P2;SDS_P1;SDS_P2;PMS_P1;PMS_P2;Temp;Humidity;BMP_temperature;BMP_pressure;BME280_temperature;BME280_humidity;BME280_pressure;Samples;Min_cycle;Max_cycle;Signal;HPM_P1;HPM_P2
2023/05/06 00:01:32;;;;;;;;;;;;;;;11.77;25.07;102260.41;5093193;28;19968;-67
2023/05/06 00:03:57;;;;;;;;;;;;;;;11.72;24.21;102267.25;5093734;28;19912;-67
2023/05/06 00:06:23;;;;;;;;;;;;;;;11.75;24.24;102265.09;5093981;28;19918;-67
2023/05/06 00:08:48;;;;;;;;;;;;;;;11.72;24.59;102270.81;5092986;28;19916;-67
2023/05/06 00:11:13;;;;;;;;;;;;;;;11.64;24.88;102278.81;5093965;28;19912;-67
2023/05/06 00:13:39;;;;;;;;;;;;;;;11.57;24.95;102267.84;5093153;28;19920;-67
2023/05/06 00:16:04;;;;;;;;;;;;;;;11.47;24.86;102269.75;5093414;28;20073;-67
2023/05/06 00:18:30;;;;;;;;;;;;;;;11.41;25.22;102267.69;5093455;28;19957;-66
2023/05/06 00:20:55;;;;;;;;;;;;;;;11.43;24.95;102273.75;5092982;28;20235;-67
2023/05/06 00:23:21;;;;;;;;;;;;;;;11.45;24.74;102274.44;5093174;28;19919;-67
2023/05/06 00:25:46;;;;;;;;;;;;;;;11.45;25.20;102277.13;5092847;28;19916;-67
2023/05/06 00:28:11;;;;;;;;;;;;;;;11.39;25.14;102275.91;5093128;28;20307;-67
2023/05/06 00:30:36;;;;;;;;;;;;;;;11.36;25.22;102278.91;5092848;28;19924;-68
2023/05/06 00:33:02;;;;;;;;;;;;;;;11.38;24.92;102276.06;5091518;28;19999;-67
2023/05/06 00:35:27;;;;;;;;;;;;;;;11.41;25.38;102276.59;5092509;28;19964;-67
2023/05/06 00:38:09;;;;;;;;;;;;;;;11.41;24.80;102271.22;5091292;28;19916;-67
2023/05/06 00:40:35;;;;;;;;;;;;;;;11.32;25.38;102279.38;5091272;28;19912;-67
2023/05/06 00:43:00;;;;;;;;;;;;;;;11.28;25.37;102281.53;5092929;28;19912;-67
2023/05/06 00:45:25;;;;;;;;;;;;;;;11.27;25.17;102270.91;5092252;28;20372;-66
2023/05/06 00:47:51;;;;;;;;;;;;;;;11.21;25.47;102275.06;5092392;28;19939;-67
2023/05/06 00:50:17;;;;;;;;;;;;;;;11.14;25.67;102280.19;5092486;28;19916;-67
2023/05/06 00:52:42;;;;;;;;;;;;;;;11.18;25.24;102278.91;5091195;28;19912;-67
2023/05/06 00:55:08;;;;;;;;;;;;;;;11.17;25.85;102279.91;5092738;28;19916;-66
2023/05/06 00:57:33;;;;;;;;;;;;;;;11.15;25.61;102279.22;5091834;28;19919;-67
2023/05/06 00:59:58;;;;;;;;;;;;;;;11.10;25.82;102283.34;5093322;28;19919;-66
2023/05/06 01:02:24;;;;;;;;;;;;;;;11.09;25.50;102279.84;5092583;28;19918;-67
2023/05/06 01:04:50;;;;;;;;;;;;;;;11.02;25.91;102287.66;5092253;28;20423;-66
2023/05/06 01:07:16;;;;;;;;;;;;;;;10.98;25.60;102288.94;5092451;28;19912;-66
2023/05/06 01:09:59;;;;;;;;;;;;;;;10.92;26.00;102286.88;5090749;28;20267;-66
2023/05/06 01:12:26;;;;;;;;;;;;;;;10.94;25.95;102292.94;5092402;28;20305;-67
2023/05/06 01:15:08;;;;;;;;;;;;;;;10.88;25.80;102287.31;5092706;28;19923;-67
2023/05/06 01:17:34;;;;;;;;;;;;;;;10.79;25.63;102292.59;5092118;28;19916;-67
2023/05/06 01:20:00;;;;;;;;;;;;;;;10.75;26.40;102295.72;5092542;28;19969;-66
2023/05/06 01:22:27;;;;;;;;;;;;;;;10.72;26.24;102290.69;5092191;28;19912;-67
2023/05/06 01:24:52;;;;;;;;;;;;;;;10.68;26.23;102294.63;5092088;28;19935;-67
2023/05/06 01:27:18;;;;;;;;;;;;;;;10.62;26.34;102291.56;5092110;28;20382;-67
2023/05/06 01:29:45;;;;;;;;;;;;;;;10.53;27.02;102296.97;5090532;28;19946;-67
2023/05/06 01:32:43;;;;;;;;;;;;;;;10.48;26.40;102296.59;5090848;28;19916;-67
2023/05/06 01:35:26;;;;;;;;;;;;;;;10.41;27.12;102299.00;5056389;28;19959;-67
2023/05/06 01:38:03;;;;;;;;;;;;;;;10.34;27.28;102296.03;5091056;28;19954;-67
2023/05/06 01:40:29;;;;;;;;;;;;;;;10.28;27.11;102304.66;5090163;28;19967;-66
2023/05/06 01:42:55;;;;;;;;;;;;;;;10.26;26.99;102306.66;5090940;28;19912;-66
2023/05/06 01:45:22;;;;;;;;;;;;;;;10.27;26.95;102297.63;5091576;28;19934;-67
2023/05/06 01:47:48;;;;;;;;;;;;;;;10.22;27.10;102310.63;5091132;28;19912;-66
2023/05/06 01:50:14;;;;;;;;;;;;;;;10.22;27.36;102299.88;5090302;28;19923;-67
2023/05/06 01:52:40;;;;;;;;;;;;;;;10.18;27.10;102306.56;5089355;28;20033;-67
2023/05/06 01:55:05;;;;;;;;;;;;;;;10.20;27.41;102307.25;5090976;28;19920;-66
2023/05/06 01:57:31;;;;;;;;;;;;;;;10.16;27.52;102300.44;5091180;28;20371;-67
2023/05/06 01:59:56;;;;;;;;;;;;;;;10.20;27.07;102301.88;5091426;28;20312;-66
2023/05/06 02:02:22;;;;;;;;;;;;;;;10.13;27.32;102298.91;5090696;28;19951;-66
2023/05/06 02:04:48;;;;;;;;;;;;;;;10.09;27.31;102305.56;5090466;28;19916;-67
2023/05/06 02:07:13;;;;;;;;;;;;;;;10.07;27.27;102304.88;5091519;28;20330;-67
2023/05/06 02:09:38;;;;;;;;;;;;;;;10.09;26.85;102300.22;5090262;28;20552;-67
2023/05/06 02:12:04;;;;;;;;;;;;;;;10.08;27.32;102299.38;5091233;28;19991;-66
2023/05/06 02:14:30;;;;;;;;;;;;;;;10.11;27.44;102308.97;5091678;28;19931;-67
2023/05/06 02:16:55;;;;;;;;;;;;;;;10.02;27.79;102310.66;5091390;28;20356;-66
2023/05/06 02:19:20;;;;;;;;;;;;;;;10.04;28.04;102310.53;5091457;28;19917;-66
2023/05/06 02:21:45;;;;;;;;;;;;;;;9.98;27.64;102319.16;5090839;28;20344;-66
2023/05/06 02:24:11;;;;;;;;;;;;;;;9.93;27.79;102313.38;5090899;28;19924;-67
2023/05/06 02:26:36;;;;;;;;;;;;;;;9.85;27.87;102314.94;5090672;28;19977;-67
2023/05/06 02:29:01;;;;;;;;;;;;;;;9.83;27.50;102311.53;5090770;28;19985;-67
2023/05/06 02:31:27;;;;;;;;;;;;;;;9.86;28.05;102313.94;5090934;28;19912;-67
2023/05/06 02:33:52;;;;;;;;;;;;;;;9.94;28.39;102312.41;5090503;28;19995;-66
2023/05/06 02:36:17;;;;;;;;;;;;;;;9.98;28.23;102305.75;5090746;28;19916;-67
2023/05/06 02:38:43;;;;;;;;;;;;;;;10.03;27.66;102311.53;5090148;28;20409;-66
2023/05/06 02:41:09;;;;;;;;;;;;;;;9.99;28.43;102302.03;5089416;28;19916;-66
2023/05/06 02:43:34;;;;;;;;;;;;;;;9.89;27.93;102310.97;5089693;28;19920;-68
2023/05/06 02:46:00;;;;;;;;;;;;;;;9.80;28.37;102311.81;5090495;28;20042;-66
2023/05/06 02:48:25;;;;;;;;;;;;;;;9.79;28.29;102312.81;5090253;28;20053;-66
2023/05/06 02:50:50;;;;;;;;;;;;;;;9.74;28.56;102315.09;5089954;28;19916;-66
2023/05/06 02:53:16;;;;;;;;;;;;;;;9.66;28.27;102320.31;5091121;28;20368;-66
2023/05/06 02:55:41;;;;;;;;;;;;;;;9.58;28.64;102318.31;5091105;28;19916;-66
2023/05/06 02:58:06;;;;;;;;;;;;;;;9.54;28.57;102324.13;5090669;28;19920;-67
2023/05/06 03:00:31;;;;;;;;;;;;;;;9.48;29.05;102322.84;5090766;28;19955;-67
2023/05/06 03:02:57;;;;;;;;;;;;;;;9.48;28.75;102326.38;5091291;28;19912;-67
2023/05/06 03:05:22;;;;;;;;;;;;;;;9.55;28.63;102334.72;5090931;28;20388;-67
2023/05/06 03:07:47;;;;;;;;;;;;;;;9.53;28.48;102333.16;5090568;28;19912;-67
2023/05/06 03:10:13;;;;;;;;;;;;;;;9.44;29.14;102337.53;5091014;28;19958;-67
2023/05/06 03:12:38;;;;;;;;;;;;;;;9.42;28.82;102337.69;5090204;28;20326;-67
2023/05/06 03:15:04;;;;;;;;;;;;;;;9.39;29.04;102342.47;5089715;28;19962;-66
2023/05/06 03:17:29;;;;;;;;;;;;;;;9.37;29.60;102345.28;5090985;28;20673;-67
2023/05/06 03:19:55;;;;;;;;;;;;;;;9.36;29.34;102348.09;5090261;28;20007;-69
2023/05/06 03:22:20;;;;;;;;;;;;;;;9.27;29.95;102347.97;5090427;28;19916;-67
2023/05/06 03:24:46;;;;;;;;;;;;;;;9.26;29.23;102354.28;5090173;28;19916;-66
2023/05/06 03:27:11;;;;;;;;;;;;;;;9.20;29.85;102345.97;5090308;28;20535;-66
2023/05/06 03:29:36;;;;;;;;;;;;;;;9.22;29.36;102344.84;5090113;28;20442;-67
2023/05/06 03:32:02;;;;;;;;;;;;;;;9.21;29.59;102336.94;5092560;28;19919;-66
2023/05/06 03:34:28;;;;;;;;;;;;;;;9.20;29.52;102348.66;5095016;28;19912;-66
2023/05/06 03:36:53;;;;;;;;;;;;;;;9.18;29.85;102353.31;5096175;28;20368;-67
2023/05/06 03:39:19;;;;;;;;;;;;;;;9.20;28.64;102349.50;5094176;28;19923;-67
2023/05/06 03:41:44;;;;;;;;;;;;;;;9.17;29.64;102360.47;5093605;28;19912;-67
2023/05/06 03:44:09;;;;;;;;;;;;;;;9.17;29.45;102360.47;5094246;28;19912;-65
2023/05/06 03:46:35;;;;;;;;;;;;;;;9.19;29.91;102363.88;5093644;28;19912;-67
2023/05/06 03:49:01;;;;;;;;;;;;;;;9.17;29.93;102354.28;5092548;28;19981;-67
2023/05/06 03:51:27;;;;;;;;;;;;;;;9.18;29.10;102361.34;5093664;28;20014;-66
2023/05/06 03:53:52;;;;;;;;;;;;;;;9.24;29.81;102352.75;5093812;28;20003;-66
2023/05/06 03:56:17;;;;;;;;;;;;;;;9.25;30.00;102349.09;5093570;28;19916;-65
2023/05/06 03:58:43;;;;;;;;;;;;;;;9.26;29.74;102351.59;5093806;28;19912;-66
2023/05/06 04:01:08;;;;;;;;;;;;;;;9.24;29.40;102345.53;5094137;28;19916;-65
2023/05/06 04:03:36;;;;;;;;;;;;;;;9.25;29.83;102351.78;5094061;28;19935;-66
2023/05/06 04:06:01;;;;;;;;;;;;;;;9.28;30.02;102352.31;5093669;28;20355;-66
2023/05/06 04:08:26;;;;;;;;;;;;;;;9.35;29.76;102354.47;5091879;28;19982;-68
2023/05/06 04:10:52;;;;;;;;;;;;;;;9.40;29.71;102354.91;5093703;28;19912;-66
2023/05/06 04:13:17;;;;;;;;;;;;;;;9.39;29.68;102348.66;5093505;28;19963;-66
2023/05/06 04:15:42;;;;;;;;;;;;;;;9.36;29.84;102357.00;5092332;28;19924;-66
2023/05/06 04:18:07;;;;;;;;;;;;;;;9.39;30.05;102354.03;5093849;28;19911;-67
2023/05/06 04:20:33;;;;;;;;;;;;;;;9.40;29.58;102354.91;5093661;28;19919;-67
2023/05/06 04:22:58;;;;;;;;;;;;;;;9.39;29.96;102355.88;5093873;28;20298;-66
2023/05/06 04:25:23;;;;;;;;;;;;;;;9.44;30.20;102353.63;5092772;28;20428;-66
2023/05/06 04:27:49;;;;;;;;;;;;;;;9.46;29.75;102344.44;5093169;28;19912;-66
2023/05/06 04:30:14;;;;;;;;;;;;;;;9.61;29.69;102349.41;5093105;28;19913;-67
2023/05/06 04:32:39;;;;;;;;;;;;;;;9.60;29.31;102353.06;5093358;28;19965;-67
2023/05/06 04:35:05;;;;;;;;;;;;;;;9.61;29.37;102346.72;5093297;28;19920;-67
2023/05/06 04:37:30;;;;;;;;;;;;;;;9.63;29.50;102348.25;5093044;28;20249;-67
2023/05/06 04:39:56;;;;;;;;;;;;;;;9.62;29.27;102353.75;5092891;28;20315;-66
2023/05/06 04:42:21;;;;;;;;;;;;;;;9.64;29.51;102362.53;5092279;28;20013;-67
2023/05/06 04:44:47;;;;;;;;;;;;;;;9.67;29.92;102355.03;5092612;28;20288;-66
2023/05/06 04:47:13;;;;;;;;;;;;;;;9.72;29.61;102362.69;5093203;28;19987;-67
2023/05/06 04:49:38;;;;;;;;;;;;;;;9.74;29.16;102357.19;5091608;28;19946;-67
2023/05/06 04:52:03;;;;;;;;;;;;;;;9.77;29.49;102360.41;5093320;28;19954;-66
2023/05/06 04:54:29;;;;;;;;;;;;;;;9.79;29.63;102357.59;5093050;28;19943;-66
2023/05/06 04:56:54;;;;;;;;;;;;;;;9.82;29.60;102359.97;5093190;28;20527;-67
2023/05/06 04:59:19;;;;;;;;;;;;;;;9.88;28.92;102360.28;5093105;28;19957;-66
2023/05/06 05:01:45;;;;;;;;;;;;;;;9.92;29.38;102354.59;5092941;28;19916;-66
2023/05/06 05:04:10;;;;;;;;;;;;;;;9.99;29.30;102361.09;5093262;28;19916;-66
2023/05/06 05:06:35;;;;;;;;;;;;;;;10.03;28.59;102355.31;5092821;28;19919;-67
2023/05/06 05:09:00;;;;;;;;;;;;;;;10.04;28.71;102362.38;5092665;28;20005;-67
2023/05/06 05:11:26;;;;;;;;;;;;;;;10.12;28.35;102364.31;5092953;28;19916;-67
2023/05/06 05:13:51;;;;;;;;;;;;;;;10.21;28.52;102362.63;5092596;28;20346;-67
2023/05/06 05:16:16;;;;;;;;;;;;;;;10.34;28.24;102365.03;5092765;28;20002;-66
2023/05/06 05:18:42;;;;;;;;;;;;;;;10.43;28.12;102373.06;5092896;28;20324;-67
2023/05/06 05:21:07;;;;;;;;;;;;;;;10.45;27.53;102364.84;5092694;28;19912;-66
2023/05/06 05:23:32;;;;;;;;;;;;;;;10.49;27.36;102360.03;5093033;28;20341;-66
2023/05/06 05:25:58;;;;;;;;;;;;;;;10.54;27.46;102365.84;5092601;28;19955;-67
2023/05/06 05:28:23;;;;;;;;;;;;;;;10.59;27.11;102369.78;5092555;28;19995;-66
2023/05/06 05:30:48;;;;;;;;;;;;;;;10.69;27.17;102360.81;5092397;28;19916;-67
2023/05/06 05:33:13;;;;;;;;;;;;;;;10.73;27.03;102364.91;5091218;28;19916;-66
2023/05/06 05:35:39;;;;;;;;;;;;;;;10.83;26.60;102365.72;5091579;28;20332;-66
2023/05/06 05:38:04;;;;;;;;;;;;;;;10.88;26.97;102368.78;5092015;28;19951;-66
2023/05/06 05:40:29;;;;;;;;;;;;;;;10.95;26.56;102367.19;5091571;28;19919;-66
2023/05/06 05:42:54;;;;;;;;;;;;;;;11.03;26.36;102380.75;5092330;28;20273;-66
2023/05/06 05:45:20;;;;;;;;;;;;;;;11.04;26.41;102369.00;5092323;28;19948;-66
2023/05/06 05:47:45;;;;;;;;;;;;;;;11.11;26.28;102369.25;5090931;28;19912;-66
2023/05/06 05:50:10;;;;;;;;;;;;;;;11.14;26.08;102374.31;5091642;28;19919;-66
2023/05/06 05:52:36;;;;;;;;;;;;;;;11.19;26.34;102372.03;5091791;28;20057;-66
2023/05/06 05:55:01;;;;;;;;;;;;;;;11.30;25.96;102378.22;5090956;28;20311;-67
2023/05/06 05:57:26;;;;;;;;;;;;;;;11.37;25.75;102373.91;5092130;28;19916;-66
2023/05/06 05:59:52;;;;;;;;;;;;;;;11.35;25.94;102367.84;5092405;28;19912;-67
2023/05/06 06:02:17;;;;;;;;;;;;;;;11.40;25.72;102363.69;5091999;28;20299;-66
2023/05/06 06:04:43;;;;;;;;;;;;;;;11.48;25.61;102368.31;5092021;28;20003;-66
2023/05/06 06:07:08;;;;;;;;;;;;;;;11.48;25.32;102367.44;5091988;28;19957;-66
2023/05/06 06:09:33;;;;;;;;;;;;;;;11.42;25.24;102367.09;5091907;28;19999;-66
2023/05/06 06:11:58;;;;;;;;;;;;;;;11.52;25.05;102374.25;5091421;28;20348;-66
2023/05/06 06:14:24;;;;;;;;;;;;;;;11.48;25.08;102368.31;5091088;28;19916;-66
2023/05/06 06:16:49;;;;;;;;;;;;;;;11.53;24.98;102373.22;5091713;28;19923;-67
2023/05/06 06:19:15;;;;;;;;;;;;;;;11.56;25.19;102375.63;5091528;28;19912;-66
2023/05/06 06:21:40;;;;;;;;;;;;;;;11.45;25.31;102370.47;5091944;28;19955;-66
2023/05/06 06:24:05;;;;;;;;;;;;;;;11.59;24.74;102367.25;5093951;28;20014;-67
2023/05/06 06:26:31;;;;;;;;;;;;;;;11.67;24.98;102371.84;5091390;28;19912;-66
2023/05/06 06:28:56;;;;;;;;;;;;;;;11.81;24.38;102371.28;5091821;28;20349;-66
2023/05/06 06:31:21;;;;;;;;;;;;;;;11.75;24.53;102378.16;5093533;28;19913;-67
2023/05/06 06:33:47;;;;;;;;;;;;;;;11.89;24.60;102378.63;5091963;28;20280;-66
2023/05/06 06:36:12;;;;;;;;;;;;;;;11.84;24.62;102378.25;5091380;28;20296;-66
2023/05/06 06:38:37;;;;;;;;;;;;;;;11.92;24.64;102375.63;5090754;28;19919;-66
2023/05/06 06:41:04;;;;;;;;;;;;;;;11.82;24.49;102373.00;5089736;28;20498;-67
2023/05/06 06:43:30;;;;;;;;;;;;;;;11.84;24.08;102372.84;5091114;28;19937;-66
2023/05/06 06:45:55;;;;;;;;;;;;;;;11.92;23.94;102370.25;5090928;28;20319;-65
2023/05/06 06:48:20;;;;;;;;;;;;;;;11.91;23.97;102373.97;5090992;28;19912;-66
2023/05/06 06:50:46;;;;;;;;;;;;;;;11.87;24.08;102373.38;5090769;28;19919;-65
2023/05/06 06:53:11;;;;;;;;;;;;;;;12.02;24.05;102365.63;5090838;28;19958;-67
2023/05/06 06:55:36;;;;;;;;;;;;;;;12.07;23.64;102373.22;5090974;28;19920;-67
2023/05/06 06:58:02;;;;;;;;;;;;;;;11.93;23.86;102374.66;5091167;28;19938;-70
2023/05/06 07:00:27;;;;;;;;;;;;;;;12.07;23.57;102375.94;5091342;28;19912;-66
2023/05/06 07:02:52;;;;;;;;;;;;;;;12.06;23.18;102364.31;5092563;28;19966;-67
2023/05/06 07:05:18;;;;;;;;;;;;;;;12.19;22.72;102355.81;5091227;28;19912;-66
2023/05/06 07:07:43;;;;;;;;;;;;;;;12.32;22.61;102356.25;5094886;28;19923;-68
2023/05/06 07:10:09;;;;;;;;;;;;;;;12.39;22.62;102362.69;5094228;28;19946;-67
2023/05/06 07:12:34;;;;;;;;;;;;;;;12.32;22.82;102353.56;5094514;28;19955;-66
2023/05/06 07:15:00;;;;;;;;;;;;;;;12.42;23.15;102349.91;5095206;28;19969;-67
2023/05/06 07:17:25;;;;;;;;;;;;;;;12.37;23.00;102353.09;5095255;28;20416;-67
2023/05/06 07:19:50;;;;;;;;;;;;;;;12.38;23.33;102352.06;5095432;28;19913;-66
2023/05/06 07:22:16;;;;;;;;;;;;;;;12.37;23.13;102359.31;5095811;28;19920;-66
2023/05/06 07:24:41;;;;;;;;;;;;;;;12.45;22.78;102353.13;5095398;28;19912;-67
2023/05/06 07:27:07;;;;;;;;;;;;;;;12.39;22.56;102351.06;5095276;28;19916;-67
2023/05/06 07:29:35;;;;;;;;;;;;;;;12.41;23.25;102357.16;5094931;28;19919;-65
2023/05/06 07:32:00;;;;;;;;;;;;;;;12.44;23.30;102359.50;5094023;28;19961;-67
2023/05/06 07:34:26;;;;;;;;;;;;;;;12.57;22.92;102357.25;5095230;28;19915;-67
2023/05/06 07:36:51;;;;;;;;;;;;;;;12.60;22.97;102350.69;5094987;28;19989;-67
2023/05/06 07:39:19;;;;;;;;;;;;;;;12.67;22.97;102361.69;5094433;28;19944;-67
2023/05/06 07:41:44;;;;;;;;;;;;;;;12.68;22.95;102356.09;5094366;28;20005;-67
2023/05/06 07:44:10;;;;;;;;;;;;;;;12.71;22.48;102345.00;5093527;28;19919;-66
2023/05/06 07:46:35;;;;;;;;;;;;;;;12.81;22.45;102349.44;5094918;28;19923;-67
2023/05/06 07:49:01;;;;;;;;;;;;;;;12.82;22.81;102351.97;5093088;28;19935;-67
2023/05/06 07:51:27;;;;;;;;;;;;;;;12.73;22.89;102355.63;5094848;28;20516;-68
2023/05/06 07:53:52;;;;;;;;;;;;;;;12.67;22.77;102351.72;5094545;28;19912;-66
2023/05/06 07:56:17;;;;;;;;;;;;;;;12.77;22.75;102341.66;5094617;28;19916;-66
2023/05/06 07:58:43;;;;;;;;;;;;;;;12.82;22.44;102349.28;5093092;28;19916;-66
2023/05/06 08:01:08;;;;;;;;;;;;;;;12.98;22.25;102352.03;5094760;28;19935;-67
2023/05/06 08:03:33;;;;;;;;;;;;;;;13.02;22.45;102347.16;5094711;28;20301;-66
2023/05/06 08:05:59;;;;;;;;;;;;;;;13.12;22.13;102339.75;5094076;28;19916;-67
2023/05/06 08:08:26;;;;;;;;;;;;;;;13.16;21.79;102345.69;5093633;28;19965;-67
2023/05/06 08:10:56;;;;;;;;;;;;;;;13.21;21.92;102340.63;5094423;28;20311;-66
2023/05/06 08:13:22;;;;;;;;;;;;;;;13.16;22.04;102330.31;5093263;28;19920;-66
2023/05/06 08:15:50;;;;;;;;;;;;;;;13.19;22.15;102334.56;5092575;28;20486;-66
2023/05/06 08:18:15;;;;;;;;;;;;;;;13.32;22.08;102342.22;5091577;28;19995;-66
2023/05/06 08:20:40;;;;;;;;;;;;;;;13.36;21.73;102335.47;5094063;28;19959;-66
2023/05/06 08:23:06;;;;;;;;;;;;;;;13.48;21.82;102336.84;5093962;28;19916;-66
2023/05/06 08:25:31;;;;;;;;;;;;;;;13.49;21.70;102338.53;5094055;28;19912;-66
2023/05/06 08:27:56;;;;;;;;;;;;;;;13.62;21.41;102335.34;5092562;28;19939;-66
2023/05/06 08:30:22;;;;;;;;;;;;;;;13.60;21.27;102326.56;5095070;28;19969;-66
2023/05/06 08:32:47;;;;;;;;;;;;;;;13.68;21.34;102325.72;5093829;28;19997;-67
2023/05/06 08:35:12;;;;;;;;;;;;;;;13.72;21.07;102327.94;5094089;28;19927;-67
2023/05/06 08:37:39;;;;;;;;;;;;;;;13.61;21.42;102316.59;5093530;28;20291;-66
2023/05/06 08:40:10;;;;;;;;;;;;;;;13.83;21.48;102317.78;5092921;28;19959;-67
2023/05/06 08:42:37;;;;;;;;;;;;;;;13.89;20.91;102317.09;5092108;28;19991;-66
2023/05/06 08:45:02;;;;;;;;;;;;;;;13.88;21.01;102315.44;5093382;28;19916;-68
2023/05/06 08:47:27;;;;;;;;;;;;;;;13.84;21.28;102316.78;5092059;28;19912;-67
2023/05/06 08:49:53;;;;;;;;;;;;;;;13.97;20.95;102318.94;5092976;28;20014;-67
2023/05/06 08:52:20;;;;;;;;;;;;;;;14.16;20.96;102323.16;5092237;28;19955;-67
2023/05/06 08:54:46;;;;;;;;;;;;;;;14.24;20.46;102310.47;5092158;28;19918;-66
2023/05/06 08:57:12;;;;;;;;;;;;;;;14.20;20.47;102305.59;5093521;28;19912;-67
2023/05/06 08:59:37;;;;;;;;;;;;;;;14.19;20.31;102299.34;5093949;28;19916;-67
2023/05/06 09:02:03;;;;;;;;;;;;;;;14.33;20.30;102308.59;5093682;28;20008;-67
2023/05/06 09:04:29;;;;;;;;;;;;;;;14.40;20.23;102297.94;5093415;28;20259;-65
2023/05/06 09:06:56;;;;;;;;;;;;;;;14.52;20.38;102299.22;5092651;28;19916;-66
2023/05/06 09:09:21;;;;;;;;;;;;;;;14.48;20.20;102297.91;5093182;28;19912;-66
2023/05/06 09:11:52;;;;;;;;;;;;;;;14.46;20.06;102295.38;5091505;28;20419;-67
2023/05/06 09:14:19;;;;;;;;;;;;;;;14.61;20.18;102289.25;5092547;28;19973;-67
2023/05/06 09:16:45;;;;;;;;;;;;;;;14.61;20.27;102282.00;5091677;28;19931;-67
2023/05/06 09:19:11;;;;;;;;;;;;;;;14.72;20.06;102283.47;5093039;28;19912;-67
2023/05/06 09:21:38;;;;;;;;;;;;;;;14.96;20.02;102276.25;5093573;28;20120;-67
2023/05/06 09:24:05;;;;;;;;;;;;;;;14.95;20.00;102282.66;5093264;28;20301;-66
2023/05/06 09:26:31;;;;;;;;;;;;;;;15.10;19.95;102275.50;5093693;28;20439;-66
2023/05/06 09:28:58;;;;;;;;;;;;;;;15.28;20.20;102269.78;5093620;28;20387;-67
2023/05/06 09:31:26;;;;;;;;;;;;;;;15.39;19.80;102277.47;5092743;28;20318;-66
2023/05/06 09:33:52;;;;;;;;;;;;;;;15.32;19.58;102264.84;5092615;28;20018;-66
2023/05/06 09:36:18;;;;;;;;;;;;;;;15.36;19.85;102267.03;5092453;28;20300;-67
2023/05/06 09:38:43;;;;;;;;;;;;;;;15.34;19.68;102262.78;5092069;28;20833;-67
2023/05/06 09:41:10;;;;;;;;;;;;;;;15.38;19.72;102262.25;5091695;28;20003;-67
2023/05/06 09:43:36;;;;;;;;;;;;;;;15.47;19.23;102258.47;5092127;28;20067;-67
2023/05/06 09:46:04;;;;;;;;;;;;;;;15.64;19.36;102253.75;5092477;28;20313;-67
2023/05/06 09:48:30;;;;;;;;;;;;;;;15.61;19.24;102251.38;5091956;28;20240;-67
2023/05/06 09:50:56;;;;;;;;;;;;;;;15.73;19.22;102246.41;5092333;28;19999;-67
2023/05/06 09:53:22;;;;;;;;;;;;;;;15.87;19.09;102250.16;5090985;28;19918;-67
2023/05/06 09:55:48;;;;;;;;;;;;;;;15.99;19.17;102246.00;5092045;28;20237;-66
2023/05/06 09:58:15;;;;;;;;;;;;;;;16.14;18.90;102242.41;5073766;28;20392;-66
2023/05/06 10:00:41;;;;;;;;;;;;;;;16.23;18.71;102236.75;5089468;28;19934;-66
2023/05/06 10:03:06;;;;;;;;;;;;;;;16.43;18.60;102241.56;5092151;28;19998;-67
2023/05/06 10:05:32;;;;;;;;;;;;;;;16.45;18.67;102234.09;5091784;28;19913;-66
2023/05/06 10:07:58;;;;;;;;;;;;;;;16.53;18.33;102230.41;5090666;28;19920;-66
2023/05/06 10:10:26;;;;;;;;;;;;;;;16.52;18.57;102235.00;5091901;28;19928;-68
2023/05/06 10:12:52;;;;;;;;;;;;;;;16.56;18.30;102235.47;5090304;28;19927;-66
2023/05/06 10:15:19;;;;;;;;;;;;;;;16.64;17.85;102228.06;5091319;28;20372;-66
2023/05/06 10:17:47;;;;;;;;;;;;;;;17.00;17.88;102231.84;5091921;28;19912;-67
2023/05/06 10:20:13;;;;;;;;;;;;;;;17.26;18.21;102220.41;5091190;28;19923;-65
2023/05/06 10:22:39;;;;;;;;;;;;;;;17.44;18.29;102214.50;5091779;28;19923;-66
2023/05/06 10:25:13;;;;;;;;;;;;;;;17.58;17.22;102210.00;5091572;28;20288;-65
2023/05/06 10:27:42;;;;;;;;;;;;;;;17.86;17.36;102204.56;5092804;28;19947;-65
2023/05/06 10:30:08;;;;;;;;;;;;;;;18.14;16.91;102203.69;5093265;28;20109;-66
2023/05/06 10:32:34;;;;;;;;;;;;;;;18.51;16.69;102196.94;5092890;28;19956;-65
2023/05/06 10:35:04;;;;;;;;;;;;;;;18.79;16.74;102193.25;5092494;28;20348;-67
2023/05/06 10:37:31;;;;;;;;;;;;;;;19.09;16.14;102195.63;5083995;28;19927;-53
2023/05/06 10:39:56;;;;;;;;;;;;;;;19.33;15.91;102197.78;5088299;28;20516;-54
2023/05/06 10:42:32;;;;;;;;;;;;;;;19.48;15.74;102196.69;5089361;28;19930;-56
2023/05/06 10:44:58;;;;;;;;;;;;;;;19.48;16.05;102189.38;5088194;28;19920;-52
2023/05/06 10:47:24;;;;;;;;;;;;;;;19.62;15.58;102194.81;5090874;28;19923;-55
2023/05/06 10:50:08;;;;;;;;;;;;;;;19.78;15.72;102197.13;5090399;28;19912;-53
2023/05/06 10:52:43;;;;;;;;;;;;;;;20.29;16.11;102179.97;5090066;28;19938;-54
2023/05/06 10:55:26;;;;;;;;;;;;;;;20.31;15.14;102168.84;5090317;28;19920;-52
2023/05/06 10:57:53;;;;;;;;;;;;;;;20.53;15.04;102165.81;5088659;28;20360;-62
2023/05/06 11:00:18;;;;;;;;;;;;;;;20.49;14.66;102162.66;5091042;28;20368;-59
2023/05/06 11:02:44;;;;;;;;;;;;;;;20.56;14.95;102155.28;5086523;28;19966;-58
2023/05/06 11:05:09;;;;;;;;;;;;;;;20.44;14.87;102166.03;5091306;28;19916;-60
2023/05/06 11:07:35;;;;;;;;;;;;;;;20.65;14.58;102148.53;5095159;28;19974;-54
2023/05/06 11:10:04;;;;;;;;;;;;;;;20.67;14.69;102159.22;5089584;28;19912;-60
2023/05/06 11:12:46;;;;;;;;;;;;;;;20.83;15.01;102152.41;5093953;28;19960;-63
2023/05/06 11:15:25;;;;;;;;;;;;;;;21.13;15.23;102141.66;5089660;28;19916;-57
2023/05/06 11:17:51;;;;;;;;;;;;;;;21.21;14.46;102137.81;5092602;28;19919;-57
2023/05/06 11:20:21;;;;;;;;;;;;;;;21.32;14.33;102138.97;5091418;28;19912;-57
2023/05/06 11:22:46;;;;;;;;;;;;;;;21.62;14.43;102137.25;5089506;28;19948;-63
2023/05/06 11:25:12;;;;;;;;;;;;;;;21.69;14.23;102134.41;5091507;28;19955;-52
2023/05/06 11:27:37;;;;;;;;;;;;;;;21.80;14.22;102119.16;5089718;28;19916;-60
2023/05/06 11:30:03;;;;;;;;;;;;;;;21.86;13.85;102142.88;5092940;28;20007;-54
2023/05/06 11:32:29;;;;;;;;;;;;;;;21.89;14.16;102139.66;5091449;28;20379;-63
2023/05/06 11:34:57;;;;;;;;;;;;;;;22.05;13.44;102146.44;5088688;28;19917;-54
2023/05/06 11:37:23;;;;;;;;;;;;;;;22.31;13.62;102136.25;5091354;28;19912;-59
2023/05/06 11:39:49;;;;;;;;;;;;;;;22.21;13.44;102140.34;5089974;28;19920;-61
2023/05/06 11:42:14;;;;;;;;;;;;;;;22.66;14.16;102130.03;5090399;28;19924;-65
2023/05/06 11:44:40;;;;;;;;;;;;;;;23.15;12.92;102136.25;5088347;28;19916;-56
2023/05/06 11:47:06;;;;;;;;;;;;;;;23.39;12.45;102142.56;5089545;28;19919;-66
2023/05/06 11:49:39;;;;;;;;;;;;;;;23.62;12.86;102130.75;5090612;28;20261;-64
2023/05/06 11:52:05;;;;;;;;;;;;;;;23.72;12.21;102133.72;5089517;28;19985;-59
2023/05/06 11:54:33;;;;;;;;;;;;;;;23.87;12.31;102135.16;5092987;28;19912;-60
2023/05/06 11:56:58;;;;;;;;;;;;;;;24.25;12.79;102123.56;5093584;28;19924;-61
2023/05/06 11:59:41;;;;;;;;;;;;;;;24.54;12.78;102131.84;5092394;28;20394;-61
2023/05/06 12:02:09;;;;;;;;;;;;;;;24.20;11.45;102122.63;5094391;28;20392;-63
2023/05/06 12:04:40;;;;;;;;;;;;;;;24.44;11.70;102126.13;5092850;28;19916;-62
2023/05/06 12:07:06;;;;;;;;;;;;;;;24.76;11.49;102112.72;5093677;28;20369;-62
2023/05/06 12:09:33;;;;;;;;;;;;;;;25.04;10.88;102121.97;5094207;28;19912;-60
2023/05/06 12:11:59;;;;;;;;;;;;;;;25.30;11.51;102117.72;5090020;28;19912;-62
2023/05/06 12:14:24;;;;;;;;;;;;;;;25.81;11.99;102114.84;5094649;28;19924;-63
2023/05/06 12:16:49;;;;;;;;;;;;;;;26.12;11.02;102118.00;5092346;28;19920;-60
2023/05/06 12:19:16;;;;;;;;;;;;;;;26.29;10.74;102124.25;5095659;28;19912;-62
2023/05/06 12:21:41;;;;;;;;;;;;;;;26.12;10.83;102126.25;5094086;28;19926;-64
2023/05/06 12:24:07;;;;;;;;;;;;;;;26.27;10.68;102118.16;5092666;28;20027;-61
2023/05/06 12:26:45;;;;;;;;;;;;;;;26.57;10.84;102112.13;5092993;28;20539;-61
2023/05/06 12:29:12;;;;;;;;;;;;;;;26.81;10.54;102109.88;5091374;28;20027;-62
2023/05/06 12:31:38;;;;;;;;;;;;;;;27.38;10.07;102118.59;5093851;28;19963;-53
2023/05/06 12:34:03;;;;;;;;;;;;;;;27.72;10.11;102118.22;5075727;28;19912;-66